sensor_id;sensor_type;location;lat;lon;timestamp;P1;durP1;ratioP1;P2;durP2;ratioP2
5688;SDS011;2869;50.432;8.680;2023-08-20T00:00:59;8.87;;;7.70;;
5688;SDS011;2869;50.432;8.680;2023-08-20T00:03:29;9.40;;;7.20;;
5688;SDS011;2869;50.432;8.680;2023-08-20T00:05:56;12.40;;;8.03;;
5688;SDS011;2869;50.432;8.680;2023-08-20T00:08:23;7.77;;;6.97;;
5688;SDS011;2869;50.432;8.680;2023-08-20T00:10:49;19.70;;;9.17;;
5688;SDS011;2869;50.432;8.680;2023-08-20T00:13:16;10.50;;;7.23;;
5688;SDS011;2869;50.432;8.680;2023-08-20T00:15:43;13.43;;;8.50;;
5688;SDS011;2869;50.432;8.680;2023-08-20T00:18:11;14.53;;;8.80;;
5688;SDS011;2869;50.432;8.680;2023-08-20T00:20:39;10.97;;;8.67;;
5688;SDS011;2869;50.432;8.680;2023-08-20T00:23:06;16.20;;;7.80;;
5688;SDS011;2869;50.432;8.680;2023-08-20T00:25:34;13.40;;;8.10;;
5688;SDS011;2869;50.432;8.680;2023-08-20T00:28:01;14.60;;;8.53;;
5688;SDS011;2869;50.432;8.680;2023-08-20T00:30:27;11.53;;;7.97;;
5688;SDS011;2869;50.432;8.680;2023-08-20T00:32:54;15.80;;;8.10;;
5688;SDS011;2869;50.432;8.680;2023-08-20T00:35:22;11.23;;;7.63;;
5688;SDS011;2869;50.432;8.680;2023-08-20T00:37:49;11.10;;;8.20;;
5688;SDS011;2869;50.432;8.680;2023-08-20T00:40:16;14.60;;;8.17;;
5688;SDS011;2869;50.432;8.680;2023-08-20T00:42:43;12.60;;;7.63;;
5688;SDS011;2869;50.432;8.680;2023-08-20T00:45:09;14.40;;;8.73;;
5688;SDS011;2869;50.432;8.680;2023-08-20T00:47:37;10.87;;;8.17;;
5688;SDS011;2869;50.432;8.680;2023-08-20T00:50:04;10.23;;;7.80;;
5688;SDS011;2869;50.432;8.680;2023-08-20T00:52:33;12.23;;;8.10;;
5688;SDS011;2869;50.432;8.680;2023-08-20T00:55:01;9.20;;;8.27;;
5688;SDS011;2869;50.432;8.680;2023-08-20T00:57:34;9.87;;;8.03;;
5688;SDS011;2869;50.432;8.680;2023-08-20T01:00:01;13.30;;;9.07;;
5688;SDS011;2869;50.432;8.680;2023-08-20T01:02:31;12.60;;;8.07;;
5688;SDS011;2869;50.432;8.680;2023-08-20T01:04:59;14.33;;;8.80;;
5688;SDS011;2869;50.432;8.680;2023-08-20T01:07:28;11.70;;;8.10;;
5688;SDS011;2869;50.432;8.680;2023-08-20T01:10:04;9.50;;;8.43;;
5688;SDS011;2869;50.432;8.680;2023-08-20T01:12:34;15.00;;;8.90;;
5688;SDS011;2869;50.432;8.680;2023-08-20T01:15:02;10.00;;;8.07;;
5688;SDS011;2869;50.432;8.680;2023-08-20T01:17:29;14.80;;;8.07;;
5688;SDS011;2869;50.432;8.680;2023-08-20T01:19:56;9.73;;;8.30;;
5688;SDS011;2869;50.432;8.680;2023-08-20T01:25:37;9.77;;;8.60;;
5688;SDS011;2869;50.432;8.680;2023-08-20T01:30:58;15.70;;;9.50;;
5688;SDS011;2869;50.432;8.680;2023-08-20T01:33:26;12.30;;;8.07;;
5688;SDS011;2869;50.432;8.680;2023-08-20T01:35:54;11.67;;;8.60;;
5688;SDS011;2869;50.432;8.680;2023-08-20T01:38:21;9.37;;;8.17;;
5688;SDS011;2869;50.432;8.680;2023-08-20T01:40:48;14.07;;;8.37;;
5688;SDS011;2869;50.432;8.680;2023-08-20T01:43:15;14.20;;;7.70;;
5688;SDS011;2869;50.432;8.680;2023-08-20T01:45:43;12.63;;;8.40;;
5688;SDS011;2869;50.432;8.680;2023-08-20T01:48:10;12.10;;;8.50;;
5688;SDS011;2869;50.432;8.680;2023-08-20T01:50:36;16.57;;;9.20;;
5688;SDS011;2869;50.432;8.680;2023-08-20T01:53:03;11.63;;;8.90;;
5688;SDS011;2869;50.432;8.680;2023-08-20T01:55:30;14.67;;;9.00;;
5688;SDS011;2869;50.432;8.680;2023-08-20T01:57:57;12.90;;;9.50;;
5688;SDS011;2869;50.432;8.680;2023-08-20T02:00:23;12.87;;;9.87;;
5688;SDS011;2869;50.432;8.680;2023-08-20T02:02:51;13.10;;;8.73;;
5688;SDS011;2869;50.432;8.680;2023-08-20T02:05:18;10.63;;;9.13;;
5688;SDS011;2869;50.432;8.680;2023-08-20T02:07:45;10.53;;;9.07;;
5688;SDS011;2869;50.432;8.680;2023-08-20T02:10:12;14.27;;;9.70;;
5688;SDS011;2869;50.432;8.680;2023-08-20T02:12:39;13.77;;;8.77;;
5688;SDS011;2869;50.432;8.680;2023-08-20T02:15:07;22.33;;;10.43;;
5688;SDS011;2869;50.432;8.680;2023-08-20T02:17:35;11.90;;;9.17;;
5688;SDS011;2869;50.432;8.680;2023-08-20T02:20:04;14.87;;;9.77;;
5688;SDS011;2869;50.432;8.680;2023-08-20T02:22:31;15.60;;;9.63;;
5688;SDS011;2869;50.432;8.680;2023-08-20T02:24:59;13.13;;;10.07;;
5688;SDS011;2869;50.432;8.680;2023-08-20T02:27:26;11.47;;;8.53;;
5688;SDS011;2869;50.432;8.680;2023-08-20T02:29:52;14.37;;;9.27;;
5688;SDS011;2869;50.432;8.680;2023-08-20T02:32:19;16.47;;;10.57;;
5688;SDS011;2869;50.432;8.680;2023-08-20T02:34:48;16.57;;;10.10;;
5688;SDS011;2869;50.432;8.680;2023-08-20T02:37:16;22.00;;;11.60;;
5688;SDS011;2869;50.432;8.680;2023-08-20T02:39:43;17.10;;;11.53;;
5688;SDS011;2869;50.432;8.680;2023-08-20T02:42:09;14.53;;;11.60;;
5688;SDS011;2869;50.432;8.680;2023-08-20T02:44:36;15.00;;;11.00;;
5688;SDS011;2869;50.432;8.680;2023-08-20T02:47:03;13.03;;;11.57;;
5688;SDS011;2869;50.432;8.680;2023-08-20T02:49:30;15.83;;;10.90;;
5688;SDS011;2869;50.432;8.680;2023-08-20T02:51:56;14.00;;;10.67;;
5688;SDS011;2869;50.432;8.680;2023-08-20T02:54:24;13.97;;;10.27;;
5688;SDS011;2869;50.432;8.680;2023-08-20T02:56:51;20.40;;;10.37;;
5688;SDS011;2869;50.432;8.680;2023-08-20T02:59:18;16.90;;;10.73;;
5688;SDS011;2869;50.432;8.680;2023-08-20T03:01:45;17.17;;;11.73;;
5688;SDS011;2869;50.432;8.680;2023-08-20T03:04:11;11.63;;;10.43;;
5688;SDS011;2869;50.432;8.680;2023-08-20T03:06:38;11.80;;;10.33;;
5688;SDS011;2869;50.432;8.680;2023-08-20T03:09:05;17.90;;;10.90;;
5688;SDS011;2869;50.432;8.680;2023-08-20T03:11:33;19.70;;;10.67;;
5688;SDS011;2869;50.432;8.680;2023-08-20T03:14:00;19.43;;;9.97;;
5688;SDS011;2869;50.432;8.680;2023-08-20T03:16:27;11.63;;;9.10;;
5688;SDS011;2869;50.432;8.680;2023-08-20T03:18:53;16.70;;;10.87;;
5688;SDS011;2869;50.432;8.680;2023-08-20T03:21:20;14.33;;;10.50;;
5688;SDS011;2869;50.432;8.680;2023-08-20T03:23:47;15.53;;;10.50;;
5688;SDS011;2869;50.432;8.680;2023-08-20T03:26:13;12.27;;;10.67;;
5688;SDS011;2869;50.432;8.680;2023-08-20T03:28:41;17.90;;;11.33;;
5688;SDS011;2869;50.432;8.680;2023-08-20T03:31:08;17.87;;;11.33;;
5688;SDS011;2869;50.432;8.680;2023-08-20T03:33:34;18.33;;;11.60;;
5688;SDS011;2869;50.432;8.680;2023-08-20T03:36:01;18.73;;;12.50;;
5688;SDS011;2869;50.432;8.680;2023-08-20T03:38:28;14.43;;;10.73;;
5688;SDS011;2869;50.432;8.680;2023-08-20T03:40:55;15.47;;;12.03;;
5688;SDS011;2869;50.432;8.680;2023-08-20T03:43:21;16.47;;;11.20;;
5688;SDS011;2869;50.432;8.680;2023-08-20T03:45:50;14.87;;;11.93;;
5688;SDS011;2869;50.432;8.680;2023-08-20T03:48:17;14.93;;;12.37;;
5688;SDS011;2869;50.432;8.680;2023-08-20T03:50:44;23.67;;;11.33;;
5688;SDS011;2869;50.432;8.680;2023-08-20T03:53:10;17.40;;;12.13;;
5688;SDS011;2869;50.432;8.680;2023-08-20T03:55:37;17.53;;;12.40;;
5688;SDS011;2869;50.432;8.680;2023-08-20T03:58:04;17.80;;;12.90;;
5688;SDS011;2869;50.432;8.680;2023-08-20T04:00:30;20.33;;;13.57;;
5688;SDS011;2869;50.432;8.680;2023-08-20T04:02:58;19.77;;;14.00;;
5688;SDS011;2869;50.432;8.680;2023-08-20T04:05:25;19.03;;;13.60;;
5688;SDS011;2869;50.432;8.680;2023-08-20T04:07:52;27.30;;;14.20;;
5688;SDS011;2869;50.432;8.680;2023-08-20T04:10:18;22.80;;;14.37;;
5688;SDS011;2869;50.432;8.680;2023-08-20T04:12:45;17.30;;;14.80;;
5688;SDS011;2869;50.432;8.680;2023-08-20T04:15:12;18.70;;;13.73;;
5688;SDS011;2869;50.432;8.680;2023-08-20T04:17:38;26.83;;;15.50;;
5688;SDS011;2869;50.432;8.680;2023-08-20T04:20:07;18.93;;;14.43;;
5688;SDS011;2869;50.432;8.680;2023-08-20T04:22:34;25.53;;;14.77;;
5688;SDS011;2869;50.432;8.680;2023-08-20T04:25:02;20.93;;;14.30;;
5688;SDS011;2869;50.432;8.680;2023-08-20T04:27:29;19.83;;;13.60;;
5688;SDS011;2869;50.432;8.680;2023-08-20T04:29:55;18.17;;;14.23;;
5688;SDS011;2869;50.432;8.680;2023-08-20T04:32:22;20.00;;;14.13;;
5688;SDS011;2869;50.432;8.680;2023-08-20T04:34:49;16.20;;;13.33;;
5688;SDS011;2869;50.432;8.680;2023-08-20T04:37:18;17.60;;;13.60;;
5688;SDS011;2869;50.432;8.680;2023-08-20T04:39:45;17.27;;;12.10;;
5688;SDS011;2869;50.432;8.680;2023-08-20T04:42:11;24.60;;;13.43;;
5688;SDS011;2869;50.432;8.680;2023-08-20T04:44:38;16.40;;;13.07;;
5688;SDS011;2869;50.432;8.680;2023-08-20T04:47:05;19.20;;;12.87;;
5688;SDS011;2869;50.432;8.680;2023-08-20T04:49:31;17.03;;;12.77;;
5688;SDS011;2869;50.432;8.680;2023-08-20T04:51:58;18.90;;;12.80;;
5688;SDS011;2869;50.432;8.680;2023-08-20T04:54:26;19.07;;;12.27;;
5688;SDS011;2869;50.432;8.680;2023-08-20T04:56:53;19.97;;;12.33;;
5688;SDS011;2869;50.432;8.680;2023-08-20T04:59:19;18.13;;;12.37;;
5688;SDS011;2869;50.432;8.680;2023-08-20T05:01:46;17.13;;;12.73;;
5688;SDS011;2869;50.432;8.680;2023-08-20T05:04:12;17.50;;;12.30;;
5688;SDS011;2869;50.432;8.680;2023-08-20T05:06:39;19.53;;;12.70;;
5688;SDS011;2869;50.432;8.680;2023-08-20T05:09:06;16.00;;;11.13;;
5688;SDS011;2869;50.432;8.680;2023-08-20T05:11:34;16.70;;;12.10;;
5688;SDS011;2869;50.432;8.680;2023-08-20T05:14:00;14.13;;;12.47;;
5688;SDS011;2869;50.432;8.680;2023-08-20T05:16:27;14.60;;;12.53;;
5688;SDS011;2869;50.432;8.680;2023-08-20T05:18:54;23.70;;;13.73;;
5688;SDS011;2869;50.432;8.680;2023-08-20T05:21:20;18.67;;;12.67;;
5688;SDS011;2869;50.432;8.680;2023-08-20T05:23:47;17.00;;;13.17;;
5688;SDS011;2869;50.432;8.680;2023-08-20T05:26:13;16.73;;;12.33;;
5688;SDS011;2869;50.432;8.680;2023-08-20T05:28:41;19.73;;;12.10;;
5688;SDS011;2869;50.432;8.680;2023-08-20T05:31:08;19.40;;;12.50;;
5688;SDS011;2869;50.432;8.680;2023-08-20T05:33:35;17.03;;;13.43;;
5688;SDS011;2869;50.432;8.680;2023-08-20T05:36:02;16.10;;;12.50;;
5688;SDS011;2869;50.432;8.680;2023-08-20T05:38:29;19.60;;;12.63;;
5688;SDS011;2869;50.432;8.680;2023-08-20T05:40:55;22.57;;;13.23;;
5688;SDS011;2869;50.432;8.680;2023-08-20T05:43:22;17.63;;;12.70;;
5688;SDS011;2869;50.432;8.680;2023-08-20T05:45:50;19.40;;;12.53;;
5688;SDS011;2869;50.432;8.680;2023-08-20T05:48:17;17.93;;;11.90;;
5688;SDS011;2869;50.432;8.680;2023-08-20T05:50:43;19.30;;;12.07;;
5688;SDS011;2869;50.432;8.680;2023-08-20T05:53:10;13.70;;;11.50;;
5688;SDS011;2869;50.432;8.680;2023-08-20T05:55:37;13.90;;;11.07;;
5688;SDS011;2869;50.432;8.680;2023-08-20T05:58:04;14.90;;;10.70;;
5688;SDS011;2869;50.432;8.680;2023-08-20T06:00:31;12.83;;;10.80;;
5688;SDS011;2869;50.432;8.680;2023-08-20T06:02:59;16.97;;;11.63;;
5688;SDS011;2869;50.432;8.680;2023-08-20T06:05:25;13.30;;;11.17;;
5688;SDS011;2869;50.432;8.680;2023-08-20T06:07:52;17.87;;;11.37;;
5688;SDS011;2869;50.432;8.680;2023-08-20T06:10:18;13.10;;;11.07;;
5688;SDS011;2869;50.432;8.680;2023-08-20T06:12:45;17.67;;;10.80;;
5688;SDS011;2869;50.432;8.680;2023-08-20T06:15:12;20.33;;;10.70;;
5688;SDS011;2869;50.432;8.680;2023-08-20T06:17:39;16.93;;;10.70;;
5688;SDS011;2869;50.432;8.680;2023-08-20T06:20:07;19.83;;;11.83;;
5688;SDS011;2869;50.432;8.680;2023-08-20T06:22:36;13.97;;;10.93;;
5688;SDS011;2869;50.432;8.680;2023-08-20T06:25:03;19.23;;;12.30;;
5688;SDS011;2869;50.432;8.680;2023-08-20T06:27:31;20.73;;;11.50;;
5688;SDS011;2869;50.432;8.680;2023-08-20T06:29:57;15.97;;;11.57;;
5688;SDS011;2869;50.432;8.680;2023-08-20T06:32:25;17.93;;;12.80;;
5688;SDS011;2869;50.432;8.680;2023-08-20T06:34:52;22.73;;;13.93;;
5688;SDS011;2869;50.432;8.680;2023-08-20T06:37:19;18.40;;;14.47;;
5688;SDS011;2869;50.432;8.680;2023-08-20T06:39:46;27.23;;;15.63;;
5688;SDS011;2869;50.432;8.680;2023-08-20T06:42:13;22.30;;;15.73;;
5688;SDS011;2869;50.432;8.680;2023-08-20T06:44:39;29.67;;;16.80;;
5688;SDS011;2869;50.432;8.680;2023-08-20T06:47:06;22.30;;;15.93;;
5688;SDS011;2869;50.432;8.680;2023-08-20T06:49:33;24.33;;;15.17;;
5688;SDS011;2869;50.432;8.680;2023-08-20T06:51:59;29.80;;;16.17;;
5688;SDS011;2869;50.432;8.680;2023-08-20T06:54:27;29.73;;;17.90;;
5688;SDS011;2869;50.432;8.680;2023-08-20T06:56:54;34.87;;;17.80;;
5688;SDS011;2869;50.432;8.680;2023-08-20T06:59:20;24.50;;;17.10;;
5688;SDS011;2869;50.432;8.680;2023-08-20T07:01:48;24.40;;;16.73;;
5688;SDS011;2869;50.432;8.680;2023-08-20T07:04:14;28.83;;;17.90;;
5688;SDS011;2869;50.432;8.680;2023-08-20T07:06:41;31.20;;;18.10;;
5688;SDS011;2869;50.432;8.680;2023-08-20T07:09:08;26.00;;;17.50;;
5688;SDS011;2869;50.432;8.680;2023-08-20T07:11:36;25.43;;;16.93;;
5688;SDS011;2869;50.432;8.680;2023-08-20T07:14:03;31.70;;;18.60;;
5688;SDS011;2869;50.432;8.680;2023-08-20T07:16:29;29.37;;;19.27;;
5688;SDS011;2869;50.432;8.680;2023-08-20T07:18:56;31.67;;;18.80;;
5688;SDS011;2869;50.432;8.680;2023-08-20T07:21:23;29.03;;;18.60;;
5688;SDS011;2869;50.432;8.680;2023-08-20T07:23:50;26.40;;;17.93;;
5688;SDS011;2869;50.432;8.680;2023-08-20T07:26:16;33.33;;;20.13;;
5688;SDS011;2869;50.432;8.680;2023-08-20T07:28:44;26.97;;;18.20;;
5688;SDS011;2869;50.432;8.680;2023-08-20T07:31:24;27.60;;;18.90;;
5688;SDS011;2869;50.432;8.680;2023-08-20T07:33:51;26.87;;;19.23;;
5688;SDS011;2869;50.432;8.680;2023-08-20T07:36:20;31.17;;;20.00;;
5688;SDS011;2869;50.432;8.680;2023-08-20T07:38:47;33.30;;;20.10;;
5688;SDS011;2869;50.432;8.680;2023-08-20T07:41:14;36.13;;;20.97;;
5688;SDS011;2869;50.432;8.680;2023-08-20T07:43:41;27.47;;;19.47;;
5688;SDS011;2869;50.432;8.680;2023-08-20T07:46:09;27.97;;;19.70;;
5688;SDS011;2869;50.432;8.680;2023-08-20T07:48:36;28.93;;;20.27;;
5688;SDS011;2869;50.432;8.680;2023-08-20T07:51:04;28.30;;;20.00;;
5688;SDS011;2869;50.432;8.680;2023-08-20T07:53:31;32.27;;;20.20;;
5688;SDS011;2869;50.432;8.680;2023-08-20T07:55:59;31.40;;;20.37;;
5688;SDS011;2869;50.432;8.680;2023-08-20T07:58:26;27.30;;;19.33;;
5688;SDS011;2869;50.432;8.680;2023-08-20T08:00:53;28.80;;;19.30;;
5688;SDS011;2869;50.432;8.680;2023-08-20T08:03:21;32.70;;;19.90;;
5688;SDS011;2869;50.432;8.680;2023-08-20T08:05:48;33.63;;;20.20;;
5688;SDS011;2869;50.432;8.680;2023-08-20T08:08:14;31.47;;;20.40;;
5688;SDS011;2869;50.432;8.680;2023-08-20T08:10:41;32.43;;;21.53;;
5688;SDS011;2869;50.432;8.680;2023-08-20T08:13:09;26.37;;;19.37;;
5688;SDS011;2869;50.432;8.680;2023-08-20T08:15:36;26.57;;;18.80;;
5688;SDS011;2869;50.432;8.680;2023-08-20T08:18:03;27.67;;;19.10;;
5688;SDS011;2869;50.432;8.680;2023-08-20T08:20:31;25.37;;;18.60;;
5688;SDS011;2869;50.432;8.680;2023-08-20T08:22:57;29.80;;;18.27;;
5688;SDS011;2869;50.432;8.680;2023-08-20T08:25:24;26.93;;;18.90;;
5688;SDS011;2869;50.432;8.680;2023-08-20T08:27:51;24.67;;;17.90;;
5688;SDS011;2869;50.432;8.680;2023-08-20T08:30:18;25.07;;;17.67;;
5688;SDS011;2869;50.432;8.680;2023-08-20T08:32:44;23.97;;;17.40;;
5688;SDS011;2869;50.432;8.680;2023-08-20T08:35:11;21.30;;;16.50;;
5688;SDS011;2869;50.432;8.680;2023-08-20T08:37:39;24.20;;;17.27;;
5688;SDS011;2869;50.432;8.680;2023-08-20T08:40:06;22.47;;;17.57;;
5688;SDS011;2869;50.432;8.680;2023-08-20T08:42:34;26.97;;;17.90;;
5688;SDS011;2869;50.432;8.680;2023-08-20T08:45:01;27.63;;;17.03;;
5688;SDS011;2869;50.432;8.680;2023-08-20T08:47:29;18.97;;;15.43;;
5688;SDS011;2869;50.432;8.680;2023-08-20T08:49:56;17.13;;;13.97;;
5688;SDS011;2869;50.432;8.680;2023-08-20T08:52:23;18.70;;;14.77;;
5688;SDS011;2869;50.432;8.680;2023-08-20T08:54:51;22.73;;;15.53;;
5688;SDS011;2869;50.432;8.680;2023-08-20T08:57:19;18.23;;;13.93;;
5688;SDS011;2869;50.432;8.680;2023-08-20T08:59:45;20.60;;;13.90;;
5688;SDS011;2869;50.432;8.680;2023-08-20T09:02:12;21.73;;;14.33;;
5688;SDS011;2869;50.432;8.680;2023-08-20T09:04:39;17.70;;;13.50;;
5688;SDS011;2869;50.432;8.680;2023-08-20T09:07:09;16.63;;;13.20;;
5688;SDS011;2869;50.432;8.680;2023-08-20T09:09:37;16.63;;;12.60;;
5688;SDS011;2869;50.432;8.680;2023-08-20T09:12:13;15.10;;;12.30;;
5688;SDS011;2869;50.432;8.680;2023-08-20T09:14:41;12.77;;;11.23;;
5688;SDS011;2869;50.432;8.680;2023-08-20T09:17:11;12.83;;;11.53;;
5688;SDS011;2869;50.432;8.680;2023-08-20T09:19:38;13.47;;;10.20;;
5688;SDS011;2869;50.432;8.680;2023-08-20T09:22:04;10.27;;;9.27;;
5688;SDS011;2869;50.432;8.680;2023-08-20T09:24:32;11.50;;;10.33;;
5688;SDS011;2869;50.432;8.680;2023-08-20T09:27:02;13.27;;;9.07;;
5688;SDS011;2869;50.432;8.680;2023-08-20T09:29:32;15.50;;;9.30;;
5688;SDS011;2869;50.432;8.680;2023-08-20T09:32:00;12.10;;;10.80;;
5688;SDS011;2869;50.432;8.680;2023-08-20T09:34:35;13.67;;;11.10;;
5688;SDS011;2869;50.432;8.680;2023-08-20T09:37:02;12.80;;;10.07;;
5688;SDS011;2869;50.432;8.680;2023-08-20T09:39:29;13.00;;;9.90;;
5688;SDS011;2869;50.432;8.680;2023-08-20T09:41:56;11.50;;;9.70;;
5688;SDS011;2869;50.432;8.680;2023-08-20T09:44:25;20.10;;;10.40;;
5688;SDS011;2869;50.432;8.680;2023-08-20T09:46:59;10.97;;;9.73;;
5688;SDS011;2869;50.432;8.680;2023-08-20T09:49:26;12.57;;;10.57;;
5688;SDS011;2869;50.432;8.680;2023-08-20T09:51:55;11.80;;;10.60;;
5688;SDS011;2869;50.432;8.680;2023-08-20T09:54:26;11.50;;;9.33;;
5688;SDS011;2869;50.432;8.680;2023-08-20T09:56:58;16.10;;;9.80;;
5688;SDS011;2869;50.432;8.680;2023-08-20T09:59:28;14.10;;;9.00;;
5688;SDS011;2869;50.432;8.680;2023-08-20T10:01:55;13.30;;;9.87;;
5688;SDS011;2869;50.432;8.680;2023-08-20T10:04:24;12.97;;;9.10;;
5688;SDS011;2869;50.432;8.680;2023-08-20T10:06:51;9.83;;;8.73;;
5688;SDS011;2869;50.432;8.680;2023-08-20T10:09:19;13.30;;;10.40;;
5688;SDS011;2869;50.432;8.680;2023-08-20T10:11:47;10.63;;;8.20;;
5688;SDS011;2869;50.432;8.680;2023-08-20T10:14:14;8.70;;;7.80;;
5688;SDS011;2869;50.432;8.680;2023-08-20T10:16:40;9.90;;;8.87;;
5688;SDS011;2869;50.432;8.680;2023-08-20T10:19:07;9.77;;;8.70;;
5688;SDS011;2869;50.432;8.680;2023-08-20T10:21:35;11.20;;;8.37;;
5688;SDS011;2869;50.432;8.680;2023-08-20T10:24:03;9.90;;;9.00;;
5688;SDS011;2869;50.432;8.680;2023-08-20T10:26:30;14.00;;;11.17;;
5688;SDS011;2869;50.432;8.680;2023-08-20T10:31:59;10.40;;;9.40;;
5688;SDS011;2869;50.432;8.680;2023-08-20T10:34:31;10.53;;;8.93;;
5688;SDS011;2869;50.432;8.680;2023-08-20T10:37:02;10.67;;;7.90;;
5688;SDS011;2869;50.432;8.680;2023-08-20T10:39:29;10.13;;;8.27;;
5688;SDS011;2869;50.432;8.680;2023-08-20T10:42:08;10.03;;;7.97;;
5688;SDS011;2869;50.432;8.680;2023-08-20T10:47:22;9.97;;;8.97;;
5688;SDS011;2869;50.432;8.680;2023-08-20T10:49:50;11.13;;;8.67;;
5688;SDS011;2869;50.432;8.680;2023-08-20T10:52:19;11.40;;;9.40;;
5688;SDS011;2869;50.432;8.680;2023-08-20T10:54:45;10.70;;;8.80;;
5688;SDS011;2869;50.432;8.680;2023-08-20T10:57:16;10.63;;;9.10;;
5688;SDS011;2869;50.432;8.680;2023-08-20T10:59:42;11.37;;;9.90;;
5688;SDS011;2869;50.432;8.680;2023-08-20T11:02:11;12.57;;;9.53;;
5688;SDS011;2869;50.432;8.680;2023-08-20T11:04:41;11.20;;;10.10;;
5688;SDS011;2869;50.432;8.680;2023-08-20T11:07:08;13.87;;;10.20;;
5688;SDS011;2869;50.432;8.680;2023-08-20T11:09:37;15.80;;;10.50;;
5688;SDS011;2869;50.432;8.680;2023-08-20T11:12:05;11.40;;;10.20;;
5688;SDS011;2869;50.432;8.680;2023-08-20T11:14:32;10.17;;;9.17;;
5688;SDS011;2869;50.432;8.680;2023-08-20T11:17:00;10.83;;;9.67;;
5688;SDS011;2869;50.432;8.680;2023-08-20T11:19:28;11.17;;;9.80;;
5688;SDS011;2869;50.432;8.680;2023-08-20T11:21:54;13.67;;;9.17;;
5688;SDS011;2869;50.432;8.680;2023-08-20T11:24:21;14.50;;;8.60;;
5688;SDS011;2869;50.432;8.680;2023-08-20T11:26:49;10.10;;;8.63;;
5688;SDS011;2869;50.432;8.680;2023-08-20T11:29:16;10.77;;;9.10;;
5688;SDS011;2869;50.432;8.680;2023-08-20T11:31:45;12.37;;;9.27;;
5688;SDS011;2869;50.432;8.680;2023-08-20T11:34:12;9.10;;;8.20;;
5688;SDS011;2869;50.432;8.680;2023-08-20T11:36:39;9.90;;;8.90;;
5688;SDS011;2869;50.432;8.680;2023-08-20T11:39:06;12.10;;;9.27;;
5688;SDS011;2869;50.432;8.680;2023-08-20T11:41:35;11.60;;;9.73;;
5688;SDS011;2869;50.432;8.680;2023-08-20T11:44:05;10.50;;;9.40;;
5688;SDS011;2869;50.432;8.680;2023-08-20T11:46:34;11.33;;;8.73;;
5688;SDS011;2869;50.432;8.680;2023-08-20T11:49:09;10.23;;;8.20;;
5688;SDS011;2869;50.432;8.680;2023-08-20T11:51:37;9.80;;;8.80;;
5688;SDS011;2869;50.432;8.680;2023-08-20T11:54:05;11.23;;;9.00;;
5688;SDS011;2869;50.432;8.680;2023-08-20T11:56:32;9.57;;;8.50;;
5688;SDS011;2869;50.432;8.680;2023-08-20T11:58:59;11.07;;;8.37;;
5688;SDS011;2869;50.432;8.680;2023-08-20T12:01:30;12.47;;;8.20;;
5688;SDS011;2869;50.432;8.680;2023-08-20T12:04:00;8.30;;;7.30;;
5688;SDS011;2869;50.432;8.680;2023-08-20T12:06:29;8.50;;;7.27;;
5688;SDS011;2869;50.432;8.680;2023-08-20T12:08:56;9.13;;;8.27;;
5688;SDS011;2869;50.432;8.680;2023-08-20T12:11:23;10.40;;;8.70;;
5688;SDS011;2869;50.432;8.680;2023-08-20T12:13:51;10.90;;;8.60;;
5688;SDS011;2869;50.432;8.680;2023-08-20T12:16:17;12.57;;;8.20;;
5688;SDS011;2869;50.432;8.680;2023-08-20T12:18:46;8.30;;;7.60;;
5688;SDS011;2869;50.432;8.680;2023-08-20T12:21:13;10.20;;;7.33;;
5688;SDS011;2869;50.432;8.680;2023-08-20T12:23:40;15.63;;;7.27;;
5688;SDS011;2869;50.432;8.680;2023-08-20T12:26:07;12.03;;;8.00;;
5688;SDS011;2869;50.432;8.680;2023-08-20T12:28:33;8.37;;;7.57;;
5688;SDS011;2869;50.432;8.680;2023-08-20T12:31:00;10.07;;;7.50;;
5688;SDS011;2869;50.432;8.680;2023-08-20T12:33:28;8.10;;;7.30;;
5688;SDS011;2869;50.432;8.680;2023-08-20T12:35:56;9.17;;;7.70;;
5688;SDS011;2869;50.432;8.680;2023-08-20T12:38:23;8.97;;;8.07;;
5688;SDS011;2869;50.432;8.680;2023-08-20T12:40:50;8.43;;;7.57;;
5688;SDS011;2869;50.432;8.680;2023-08-20T12:43:17;10.20;;;7.67;;
5688;SDS011;2869;50.432;8.680;2023-08-20T12:45:43;9.73;;;6.80;;
5688;SDS011;2869;50.432;8.680;2023-08-20T12:48:10;8.87;;;6.80;;
5688;SDS011;2869;50.432;8.680;2023-08-20T12:50:37;7.33;;;6.63;;
5688;SDS011;2869;50.432;8.680;2023-08-20T12:53:05;8.87;;;6.73;;
5688;SDS011;2869;50.432;8.680;2023-08-20T12:55:31;7.17;;;5.73;;
5688;SDS011;2869;50.432;8.680;2023-08-20T12:57:58;11.67;;;5.70;;
5688;SDS011;2869;50.432;8.680;2023-08-20T13:00:25;9.67;;;5.40;;
5688;SDS011;2869;50.432;8.680;2023-08-20T13:02:53;7.70;;;5.87;;
5688;SDS011;2869;50.432;8.680;2023-08-20T13:05:21;9.43;;;6.80;;
5688;SDS011;2869;50.432;8.680;2023-08-20T13:07:48;10.83;;;6.20;;
5688;SDS011;2869;50.432;8.680;2023-08-20T13:10:17;11.27;;;7.23;;
5688;SDS011;2869;50.432;8.680;2023-08-20T13:12:46;8.50;;;6.83;;
5688;SDS011;2869;50.432;8.680;2023-08-20T13:15:15;7.70;;;6.60;;
5688;SDS011;2869;50.432;8.680;2023-08-20T13:17:42;14.03;;;7.63;;
5688;SDS011;2869;50.432;8.680;2023-08-20T13:20:09;13.50;;;7.00;;
5688;SDS011;2869;50.432;8.680;2023-08-20T13:22:36;7.00;;;6.33;;
5688;SDS011;2869;50.432;8.680;2023-08-20T13:25:03;6.90;;;6.30;;
5688;SDS011;2869;50.432;8.680;2023-08-20T13:27:32;10.90;;;6.17;;
5688;SDS011;2869;50.432;8.680;2023-08-20T13:29:59;6.27;;;5.67;;
5688;SDS011;2869;50.432;8.680;2023-08-20T13:32:26;5.97;;;5.30;;
5688;SDS011;2869;50.432;8.680;2023-08-20T13:34:53;8.10;;;5.30;;
5688;SDS011;2869;50.432;8.680;2023-08-20T13:37:19;5.63;;;5.13;;
5688;SDS011;2869;50.432;8.680;2023-08-20T13:39:46;7.10;;;5.40;;
5688;SDS011;2869;50.432;8.680;2023-08-20T13:42:12;7.93;;;5.37;;
5688;SDS011;2869;50.432;8.680;2023-08-20T13:44:40;7.27;;;5.07;;
5688;SDS011;2869;50.432;8.680;2023-08-20T13:47:07;5.87;;;5.10;;
5688;SDS011;2869;50.432;8.680;2023-08-20T13:49:34;9.93;;;5.90;;
5688;SDS011;2869;50.432;8.680;2023-08-20T13:52:00;5.73;;;5.03;;
5688;SDS011;2869;50.432;8.680;2023-08-20T13:54:27;11.50;;;4.97;;
5688;SDS011;2869;50.432;8.680;2023-08-20T13:56:54;6.23;;;5.70;;
5688;SDS011;2869;50.432;8.680;2023-08-20T13:59:20;5.67;;;5.17;;
5688;SDS011;2869;50.432;8.680;2023-08-20T14:01:48;6.90;;;6.20;;
5688;SDS011;2869;50.432;8.680;2023-08-20T14:04:15;6.00;;;4.73;;
5688;SDS011;2869;50.432;8.680;2023-08-20T14:06:42;8.80;;;5.47;;
5688;SDS011;2869;50.432;8.680;2023-08-20T14:09:08;5.17;;;4.53;;
5688;SDS011;2869;50.432;8.680;2023-08-20T14:11:35;5.33;;;4.83;;
5688;SDS011;2869;50.432;8.680;2023-08-20T14:14:02;8.20;;;4.73;;
5688;SDS011;2869;50.432;8.680;2023-08-20T14:16:29;8.70;;;4.60;;
5688;SDS011;2869;50.432;8.680;2023-08-20T14:18:57;8.80;;;5.40;;
5688;SDS011;2869;50.432;8.680;2023-08-20T14:21:23;6.03;;;4.80;;
5688;SDS011;2869;50.432;8.680;2023-08-20T14:23:50;8.43;;;5.37;;
5688;SDS011;2869;50.432;8.680;2023-08-20T14:26:17;7.13;;;5.30;;
5688;SDS011;2869;50.432;8.680;2023-08-20T14:28:44;7.20;;;4.80;;
5688;SDS011;2869;50.432;8.680;2023-08-20T14:31:11;7.43;;;6.00;;
5688;SDS011;2869;50.432;8.680;2023-08-20T14:33:38;6.20;;;4.60;;
5688;SDS011;2869;50.432;8.680;2023-08-20T14:36:06;5.30;;;4.80;;
5688;SDS011;2869;50.432;8.680;2023-08-20T14:38:32;6.40;;;4.87;;
5688;SDS011;2869;50.432;8.680;2023-08-20T14:40:59;6.73;;;4.90;;
5688;SDS011;2869;50.432;8.680;2023-08-20T14:43:26;8.70;;;4.80;;
5688;SDS011;2869;50.432;8.680;2023-08-20T14:45:53;6.20;;;5.30;;
5688;SDS011;2869;50.432;8.680;2023-08-20T14:48:20;8.87;;;5.20;;
5688;SDS011;2869;50.432;8.680;2023-08-20T14:50:47;6.30;;;4.83;;
5688;SDS011;2869;50.432;8.680;2023-08-20T14:53:15;5.87;;;5.23;;
5688;SDS011;2869;50.432;8.680;2023-08-20T14:55:42;9.13;;;5.07;;
5688;SDS011;2869;50.432;8.680;2023-08-20T14:58:09;8.63;;;4.63;;
5688;SDS011;2869;50.432;8.680;2023-08-20T15:00:36;5.27;;;4.63;;
5688;SDS011;2869;50.432;8.680;2023-08-20T15:03:03;5.80;;;4.60;;
5688;SDS011;2869;50.432;8.680;2023-08-20T15:05:31;7.43;;;5.00;;
5688;SDS011;2869;50.432;8.680;2023-08-20T15:07:58;12.20;;;4.87;;
5688;SDS011;2869;50.432;8.680;2023-08-20T15:10:26;6.27;;;4.30;;